Terminal Aerodrome Forecast
Issued by NWS

Home | Current Version | Previous Version | Text Only | Print | Product List | Glossary On
Versions: 1 2 3 4 5 6 7 8 9 10 11 12 13
000
FTUS42 TJSJ 252321
TAFJMZ
TAF
TJMZ 252321Z 2600/2624 14004KT P6SM SCT020 SCT050
     FM261200 09008KT P6SM SCT025
     FM261700 22008KT P6SM SCT030
      AMD NOT SKED=

USA.gov is the U.S. government's official web portal to all federal, state and local government web resources and services.